Euclid, OH (44117)

5:58 PM EST on December 06, 2016 (GMT -0500)
Bob's Euclid weather station | | Change Station

Elev 833 ft 41.57 °N, 81.52 °W | Updated 7 days ago

Cloudy
Cloudy
41 °F
Feels Like 36 °F
N
8
Wind Variable Wind from South
Gusts mph

Today
High -- | Low -- °F
--% Chance of Precip.
Yesterday
High -- | Low -- °F
Precip. -- in
Pressure 29.70 in
Visibility 3.0 miles
Clouds Overcast 700 ft
Windchill 36 °F
Dew Point 37 °F
Humidity 86%
Rainfall in
Snow Depth Not available.
7:38 AM 4:55 PM
Waxing Crescent, 46% visible
METAR KCGF 062245Z 15007KT 3SM RA BR OVC007 04/04 A2970
Pressure 29.70 in
Visibility 3.0 miles
Clouds Overcast 700 ft
Windchill 36 °F
Dew Point 37 °F
Humidity 86%
Rainfall in
Snow Depth Not available.
7:38 AM 4:55 PM
Waxing Crescent, 46% visible
METAR KCGF 062245Z 15007KT 3SM RA BR OVC007 04/04 A2970

10-Day Weather Forecast

Almanac

Astronomy

Dec. 06, 2016 Rise Set
Actual Time
Civil Twilight
Nautical Twilight
Astronomical Twilight
Moon
Length of Visible Light
Length of Day
Tomorrow will be .
, % of the Moon is Illuminated

Today's Extremes

State Highs State Lows

Community

WunderPhotos

Upload Photos

1,956,042 photos uploaded!

WunderBlog® & News

Nearby

Air Quality

  Air Quality AQ Index Pollutant
Not available.

Snow Depth

Station Depth Elevation

Earthquake Activity

City Distance Mag. Time & Date
Minimum magnitude displayed is 2.5.

Coastal Water Temperatures

Place Temperature

Stations

Nearby Weather Stations

Station Location Temp. Windchill Dew Point Humidity Wind Precip. Elev Updated Type
                   

Watches & Warnings

There are currently no watches in effect.